sensor_id;sensor_type;location;lat;lon;timestamp;P1;durP1;ratioP1;P2;durP2;ratioP2
72974;SDS011;61166;54.228;37.632;2023-02-26T00:01:55;52.05;;;21.88;;
72974;SDS011;61166;54.228;37.632;2023-02-26T00:04:21;66.00;;;19.77;;
72974;SDS011;61166;54.228;37.632;2023-02-26T00:06:48;40.67;;;15.13;;
72974;SDS011;61166;54.228;37.632;2023-02-26T00:09:15;69.10;;;22.42;;
72974;SDS011;61166;54.228;37.632;2023-02-26T00:11:41;40.72;;;16.63;;
72974;SDS011;61166;54.228;37.632;2023-02-26T00:14:10;43.83;;;16.02;;
72974;SDS011;61166;54.228;37.632;2023-02-26T00:16:39;39.70;;;18.97;;
72974;SDS011;61166;54.228;37.632;2023-02-26T00:19:07;46.20;;;18.58;;
72974;SDS011;61166;54.228;37.632;2023-02-26T00:21:37;53.70;;;18.60;;
72974;SDS011;61166;54.228;37.632;2023-02-26T00:24:03;35.05;;;14.13;;
72974;SDS011;61166;54.228;37.632;2023-02-26T00:26:30;37.97;;;15.55;;
72974;SDS011;61166;54.228;37.632;2023-02-26T00:28:58;42.30;;;15.93;;
72974;SDS011;61166;54.228;37.632;2023-02-26T00:31:25;44.20;;;18.08;;
72974;SDS011;61166;54.228;37.632;2023-02-26T00:33:53;32.47;;;13.82;;
72974;SDS011;61166;54.228;37.632;2023-02-26T00:39:48;39.47;;;14.82;;
72974;SDS011;61166;54.228;37.632;2023-02-26T00:42:17;44.00;;;16.63;;
72974;SDS011;61166;54.228;37.632;2023-02-26T00:44:44;40.20;;;15.10;;
72974;SDS011;61166;54.228;37.632;2023-02-26T00:50:10;36.42;;;14.98;;
72974;SDS011;61166;54.228;37.632;2023-02-26T00:53:28;31.88;;;12.93;;
72974;SDS011;61166;54.228;37.632;2023-02-26T00:55:34;31.77;;;10.87;;
72974;SDS011;61166;54.228;37.632;2023-02-26T00:58:00;28.85;;;11.73;;
72974;SDS011;61166;54.228;37.632;2023-02-26T01:00:27;23.67;;;10.98;;
72974;SDS011;61166;54.228;37.632;2023-02-26T01:02:54;29.67;;;13.10;;
72974;SDS011;61166;54.228;37.632;2023-02-26T01:05:21;25.60;;;10.70;;
72974;SDS011;61166;54.228;37.632;2023-02-26T01:10:33;27.30;;;10.70;;
72974;SDS011;61166;54.228;37.632;2023-02-26T01:12:59;29.00;;;11.63;;
72974;SDS011;61166;54.228;37.632;2023-02-26T01:15:26;19.38;;;9.85;;
72974;SDS011;61166;54.228;37.632;2023-02-26T01:20:28;18.00;;;8.10;;
72974;SDS011;61166;54.228;37.632;2023-02-26T01:25:35;20.63;;;8.43;;
72974;SDS011;61166;54.228;37.632;2023-02-26T01:28:06;33.58;;;12.15;;
72974;SDS011;61166;54.228;37.632;2023-02-26T01:30:33;15.55;;;6.43;;
72974;SDS011;61166;54.228;37.632;2023-02-26T01:33:34;20.97;;;9.20;;
72974;SDS011;61166;54.228;37.632;2023-02-26T01:36:00;24.55;;;8.68;;
72974;SDS011;61166;54.228;37.632;2023-02-26T01:38:38;19.63;;;7.90;;
72974;SDS011;61166;54.228;37.632;2023-02-26T01:49:29;32.83;;;12.70;;
72974;SDS011;61166;54.228;37.632;2023-02-26T01:52:00;22.00;;;10.07;;
72974;SDS011;61166;54.228;37.632;2023-02-26T01:54:36;13.02;;;6.25;;
72974;SDS011;61166;54.228;37.632;2023-02-26T01:59:38;21.30;;;8.30;;
72974;SDS011;61166;54.228;37.632;2023-02-26T02:02:09;22.30;;;9.65;;
72974;SDS011;61166;54.228;37.632;2023-02-26T02:04:38;19.73;;;9.98;;
72974;SDS011;61166;54.228;37.632;2023-02-26T02:07:05;36.40;;;15.48;;
72974;SDS011;61166;54.228;37.632;2023-02-26T02:09:33;18.38;;;9.00;;
72974;SDS011;61166;54.228;37.632;2023-02-26T02:32:11;24.20;;;12.60;;
72974;SDS011;61166;54.228;37.632;2023-02-26T02:34:45;21.92;;;9.95;;
72974;SDS011;61166;54.228;37.632;2023-02-26T02:40:10;28.87;;;11.57;;
72974;SDS011;61166;54.228;37.632;2023-02-26T02:42:42;25.60;;;12.18;;
72974;SDS011;61166;54.228;37.632;2023-02-26T02:45:17;22.10;;;11.05;;
72974;SDS011;61166;54.228;37.632;2023-02-26T02:47:51;24.20;;;11.23;;
72974;SDS011;61166;54.228;37.632;2023-02-26T02:50:56;21.40;;;10.00;;
72974;SDS011;61166;54.228;37.632;2023-02-26T02:53:19;15.93;;;6.67;;
72974;SDS011;61166;54.228;37.632;2023-02-26T02:55:58;15.77;;;7.50;;
72974;SDS011;61166;54.228;37.632;2023-02-26T02:58:31;13.70;;;7.28;;
72974;SDS011;61166;54.228;37.632;2023-02-26T03:01:03;16.67;;;7.85;;
72974;SDS011;61166;54.228;37.632;2023-02-26T03:03:42;13.07;;;6.88;;
72974;SDS011;61166;54.228;37.632;2023-02-26T03:06:20;14.43;;;5.97;;
72974;SDS011;61166;54.228;37.632;2023-02-26T03:08:47;14.32;;;6.43;;
72974;SDS011;61166;54.228;37.632;2023-02-26T03:11:15;13.10;;;6.88;;
72974;SDS011;61166;54.228;37.632;2023-02-26T03:13:42;14.27;;;6.05;;
72974;SDS011;61166;54.228;37.632;2023-02-26T03:27:02;9.63;;;4.63;;
72974;SDS011;61166;54.228;37.632;2023-02-26T03:29:44;11.30;;;5.53;;
72974;SDS011;61166;54.228;37.632;2023-02-26T03:32:28;10.27;;;4.10;;
72974;SDS011;61166;54.228;37.632;2023-02-26T03:35:04;9.73;;;4.65;;
72974;SDS011;61166;54.228;37.632;2023-02-26T03:37:37;10.63;;;5.75;;
72974;SDS011;61166;54.228;37.632;2023-02-26T03:40:08;9.25;;;4.43;;
72974;SDS011;61166;54.228;37.632;2023-02-26T03:42:43;8.52;;;4.55;;
72974;SDS011;61166;54.228;37.632;2023-02-26T03:45:18;8.07;;;4.43;;
72974;SDS011;61166;54.228;37.632;2023-02-26T03:47:50;9.57;;;4.07;;
72974;SDS011;61166;54.228;37.632;2023-02-26T03:50:31;9.13;;;4.07;;
72974;SDS011;61166;54.228;37.632;2023-02-26T03:53:26;6.03;;;2.83;;
72974;SDS011;61166;54.228;37.632;2023-02-26T03:58:30;4.80;;;2.40;;
72974;SDS011;61166;54.228;37.632;2023-02-26T04:01:05;5.35;;;2.05;;
72974;SDS011;61166;54.228;37.632;2023-02-26T04:03:37;4.75;;;1.90;;
72974;SDS011;61166;54.228;37.632;2023-02-26T04:06:10;6.53;;;2.45;;
72974;SDS011;61166;54.228;37.632;2023-02-26T04:08:37;5.25;;;2.28;;
72974;SDS011;61166;54.228;37.632;2023-02-26T04:11:07;2.63;;;0.80;;
72974;SDS011;61166;54.228;37.632;2023-02-26T04:13:36;4.43;;;1.77;;
72974;SDS011;61166;54.228;37.632;2023-02-26T04:16:03;2.78;;;1.40;;
72974;SDS011;61166;54.228;37.632;2023-02-26T04:18:29;4.82;;;2.05;;
72974;SDS011;61166;54.228;37.632;2023-02-26T04:20:56;3.47;;;1.35;;
72974;SDS011;61166;54.228;37.632;2023-02-26T04:23:23;4.17;;;1.70;;
72974;SDS011;61166;54.228;37.632;2023-02-26T04:25:49;4.57;;;1.92;;
72974;SDS011;61166;54.228;37.632;2023-02-26T04:28:16;4.15;;;1.95;;
72974;SDS011;61166;54.228;37.632;2023-02-26T04:30:43;4.30;;;1.90;;
72974;SDS011;61166;54.228;37.632;2023-02-26T04:33:09;4.28;;;1.67;;
72974;SDS011;61166;54.228;37.632;2023-02-26T04:35:36;3.50;;;1.30;;
72974;SDS011;61166;54.228;37.632;2023-02-26T04:38:03;3.45;;;1.30;;
72974;SDS011;61166;54.228;37.632;2023-02-26T04:40:30;4.47;;;1.83;;
72974;SDS011;61166;54.228;37.632;2023-02-26T04:42:56;3.40;;;1.65;;
72974;SDS011;61166;54.228;37.632;2023-02-26T04:45:23;3.03;;;1.52;;
72974;SDS011;61166;54.228;37.632;2023-02-26T04:47:49;3.07;;;1.37;;
72974;SDS011;61166;54.228;37.632;2023-02-26T04:50:16;3.42;;;1.58;;
72974;SDS011;61166;54.228;37.632;2023-02-26T04:52:43;4.55;;;3.35;;
72974;SDS011;61166;54.228;37.632;2023-02-26T04:55:09;4.50;;;2.97;;
72974;SDS011;61166;54.228;37.632;2023-02-26T04:57:36;4.50;;;4.10;;
72974;SDS011;61166;54.228;37.632;2023-02-26T05:00:03;2.97;;;1.20;;
72974;SDS011;61166;54.228;37.632;2023-02-26T05:02:30;3.20;;;1.25;;
72974;SDS011;61166;54.228;37.632;2023-02-26T05:04:57;3.70;;;1.73;;
72974;SDS011;61166;54.228;37.632;2023-02-26T05:07:23;3.75;;;1.63;;
72974;SDS011;61166;54.228;37.632;2023-02-26T05:09:50;3.33;;;1.60;;
72974;SDS011;61166;54.228;37.632;2023-02-26T05:12:17;3.17;;;1.40;;
72974;SDS011;61166;54.228;37.632;2023-02-26T05:14:43;4.05;;;1.83;;
72974;SDS011;61166;54.228;37.632;2023-02-26T05:17:10;3.75;;;1.85;;
72974;SDS011;61166;54.228;37.632;2023-02-26T05:19:36;2.90;;;1.70;;
72974;SDS011;61166;54.228;37.632;2023-02-26T05:22:03;3.65;;;1.88;;
72974;SDS011;61166;54.228;37.632;2023-02-26T05:24:29;3.93;;;1.43;;
72974;SDS011;61166;54.228;37.632;2023-02-26T05:26:56;2.80;;;1.40;;
72974;SDS011;61166;54.228;37.632;2023-02-26T05:29:23;3.45;;;1.55;;
72974;SDS011;61166;54.228;37.632;2023-02-26T05:31:49;3.22;;;1.48;;
72974;SDS011;61166;54.228;37.632;2023-02-26T05:34:16;3.17;;;1.63;;
72974;SDS011;61166;54.228;37.632;2023-02-26T05:36:43;3.63;;;1.10;;
72974;SDS011;61166;54.228;37.632;2023-02-26T05:39:09;3.60;;;1.10;;
72974;SDS011;61166;54.228;37.632;2023-02-26T05:41:36;3.45;;;1.52;;
72974;SDS011;61166;54.228;37.632;2023-02-26T05:44:02;2.83;;;1.35;;
72974;SDS011;61166;54.228;37.632;2023-02-26T05:46:29;3.53;;;1.50;;
72974;SDS011;61166;54.228;37.632;2023-02-26T05:48:56;3.90;;;1.57;;
72974;SDS011;61166;54.228;37.632;2023-02-26T05:51:22;3.38;;;1.48;;
72974;SDS011;61166;54.228;37.632;2023-02-26T05:53:49;3.38;;;1.23;;
72974;SDS011;61166;54.228;37.632;2023-02-26T05:56:15;3.25;;;1.15;;
72974;SDS011;61166;54.228;37.632;2023-02-26T05:58:43;3.38;;;1.50;;
72974;SDS011;61166;54.228;37.632;2023-02-26T06:01:10;3.73;;;1.30;;
72974;SDS011;61166;54.228;37.632;2023-02-26T06:03:36;3.85;;;1.30;;
72974;SDS011;61166;54.228;37.632;2023-02-26T06:06:03;3.45;;;1.58;;
72974;SDS011;61166;54.228;37.632;2023-02-26T06:08:30;3.35;;;1.33;;
72974;SDS011;61166;54.228;37.632;2023-02-26T06:10:56;4.05;;;2.10;;
72974;SDS011;61166;54.228;37.632;2023-02-26T06:13:23;4.07;;;1.40;;
72974;SDS011;61166;54.228;37.632;2023-02-26T06:15:49;2.83;;;1.23;;
72974;SDS011;61166;54.228;37.632;2023-02-26T06:18:16;2.92;;;1.80;;
72974;SDS011;61166;54.228;37.632;2023-02-26T06:20:43;2.75;;;1.10;;
72974;SDS011;61166;54.228;37.632;2023-02-26T06:23:09;3.33;;;1.48;;
72974;SDS011;61166;54.228;37.632;2023-02-26T06:25:36;4.13;;;1.83;;
72974;SDS011;61166;54.228;37.632;2023-02-26T06:28:03;4.60;;;1.30;;
72974;SDS011;61166;54.228;37.632;2023-02-26T06:30:29;3.17;;;1.58;;
72974;SDS011;61166;54.228;37.632;2023-02-26T06:32:56;3.60;;;1.45;;
72974;SDS011;61166;54.228;37.632;2023-02-26T06:35:22;4.93;;;1.90;;
72974;SDS011;61166;54.228;37.632;2023-02-26T06:37:49;3.30;;;1.10;;
72974;SDS011;61166;54.228;37.632;2023-02-26T06:40:16;3.05;;;1.38;;
72974;SDS011;61166;54.228;37.632;2023-02-26T06:42:42;4.65;;;1.70;;
72974;SDS011;61166;54.228;37.632;2023-02-26T06:45:09;4.00;;;1.50;;
72974;SDS011;61166;54.228;37.632;2023-02-26T06:47:36;4.05;;;1.77;;
72974;SDS011;61166;54.228;37.632;2023-02-26T06:50:03;4.43;;;1.90;;
72974;SDS011;61166;54.228;37.632;2023-02-26T06:52:29;3.70;;;1.65;;
72974;SDS011;61166;54.228;37.632;2023-02-26T06:54:56;3.88;;;1.92;;
72974;SDS011;61166;54.228;37.632;2023-02-26T06:57:23;4.78;;;2.03;;
72974;SDS011;61166;54.228;37.632;2023-02-26T06:59:50;3.75;;;2.13;;
72974;SDS011;61166;54.228;37.632;2023-02-26T07:02:18;3.13;;;1.60;;
72974;SDS011;61166;54.228;37.632;2023-02-26T07:04:46;3.13;;;1.60;;
72974;SDS011;61166;54.228;37.632;2023-02-26T07:07:12;7.97;;;2.08;;
72974;SDS011;61166;54.228;37.632;2023-02-26T07:09:39;4.82;;;2.30;;
72974;SDS011;61166;54.228;37.632;2023-02-26T07:12:06;4.22;;;1.80;;
72974;SDS011;61166;54.228;37.632;2023-02-26T07:14:33;4.27;;;1.97;;
72974;SDS011;61166;54.228;37.632;2023-02-26T07:17:00;3.45;;;1.45;;
72974;SDS011;61166;54.228;37.632;2023-02-26T07:19:28;3.17;;;1.50;;
72974;SDS011;61166;54.228;37.632;2023-02-26T07:21:55;5.95;;;1.58;;
72974;SDS011;61166;54.228;37.632;2023-02-26T07:24:22;3.50;;;1.80;;
72974;SDS011;61166;54.228;37.632;2023-02-26T07:26:49;4.50;;;1.37;;
72974;SDS011;61166;54.228;37.632;2023-02-26T07:29:16;3.58;;;1.52;;
72974;SDS011;61166;54.228;37.632;2023-02-26T07:31:42;4.18;;;1.73;;
72974;SDS011;61166;54.228;37.632;2023-02-26T07:34:10;3.13;;;1.33;;
72974;SDS011;61166;54.228;37.632;2023-02-26T07:36:37;6.18;;;2.35;;
72974;SDS011;61166;54.228;37.632;2023-02-26T07:39:03;2.67;;;1.00;;
72974;SDS011;61166;54.228;37.632;2023-02-26T07:41:30;3.85;;;1.38;;
72974;SDS011;61166;54.228;37.632;2023-02-26T07:43:56;2.78;;;1.20;;
72974;SDS011;61166;54.228;37.632;2023-02-26T07:46:23;2.92;;;1.00;;
72974;SDS011;61166;54.228;37.632;2023-02-26T07:48:50;3.17;;;1.20;;
72974;SDS011;61166;54.228;37.632;2023-02-26T07:51:17;4.90;;;1.67;;
72974;SDS011;61166;54.228;37.632;2023-02-26T07:53:43;3.05;;;1.13;;
72974;SDS011;61166;54.228;37.632;2023-02-26T07:56:10;3.10;;;1.20;;
72974;SDS011;61166;54.228;37.632;2023-02-26T07:58:36;6.65;;;3.15;;
72974;SDS011;61166;54.228;37.632;2023-02-26T08:01:03;3.53;;;1.70;;
72974;SDS011;61166;54.228;37.632;2023-02-26T08:03:30;3.13;;;1.20;;
72974;SDS011;61166;54.228;37.632;2023-02-26T08:05:56;3.13;;;1.25;;
72974;SDS011;61166;54.228;37.632;2023-02-26T08:08:23;3.60;;;1.60;;
72974;SDS011;61166;54.228;37.632;2023-02-26T08:10:49;3.25;;;1.33;;
72974;SDS011;61166;54.228;37.632;2023-02-26T08:13:16;3.13;;;1.65;;
72974;SDS011;61166;54.228;37.632;2023-02-26T08:15:44;2.43;;;1.10;;
72974;SDS011;61166;54.228;37.632;2023-02-26T08:18:10;2.83;;;1.17;;
72974;SDS011;61166;54.228;37.632;2023-02-26T08:20:37;2.42;;;1.38;;
72974;SDS011;61166;54.228;37.632;2023-02-26T08:23:03;2.70;;;1.40;;
72974;SDS011;61166;54.228;37.632;2023-02-26T08:25:30;2.83;;;1.48;;
72974;SDS011;61166;54.228;37.632;2023-02-26T08:27:57;3.43;;;1.40;;
72974;SDS011;61166;54.228;37.632;2023-02-26T08:30:23;3.53;;;1.65;;
72974;SDS011;61166;54.228;37.632;2023-02-26T08:32:50;3.58;;;1.42;;
72974;SDS011;61166;54.228;37.632;2023-02-26T08:35:17;8.75;;;1.63;;
72974;SDS011;61166;54.228;37.632;2023-02-26T08:37:43;3.08;;;1.60;;
72974;SDS011;61166;54.228;37.632;2023-02-26T08:40:10;2.90;;;1.30;;
72974;SDS011;61166;54.228;37.632;2023-02-26T08:42:40;4.93;;;1.33;;
72974;SDS011;61166;54.228;37.632;2023-02-26T08:45:07;4.05;;;1.30;;
72974;SDS011;61166;54.228;37.632;2023-02-26T08:47:34;3.33;;;1.55;;
72974;SDS011;61166;54.228;37.632;2023-02-26T08:50:08;2.42;;;1.20;;
72974;SDS011;61166;54.228;37.632;2023-02-26T08:52:36;3.60;;;1.20;;
72974;SDS011;61166;54.228;37.632;2023-02-26T08:55:02;2.97;;;1.55;;
72974;SDS011;61166;54.228;37.632;2023-02-26T08:57:29;3.60;;;1.65;;
72974;SDS011;61166;54.228;37.632;2023-02-26T08:59:56;3.03;;;1.35;;
72974;SDS011;61166;54.228;37.632;2023-02-26T09:02:22;3.15;;;2.30;;
72974;SDS011;61166;54.228;37.632;2023-02-26T09:04:49;2.93;;;1.53;;
72974;SDS011;61166;54.228;37.632;2023-02-26T09:07:16;4.00;;;1.88;;
72974;SDS011;61166;54.228;37.632;2023-02-26T09:09:43;2.60;;;1.45;;
72974;SDS011;61166;54.228;37.632;2023-02-26T09:12:09;3.45;;;1.45;;
72974;SDS011;61166;54.228;37.632;2023-02-26T09:14:36;3.25;;;1.60;;
72974;SDS011;61166;54.228;37.632;2023-02-26T09:17:02;3.30;;;1.50;;
72974;SDS011;61166;54.228;37.632;2023-02-26T09:19:29;3.95;;;1.90;;
72974;SDS011;61166;54.228;37.632;2023-02-26T09:21:55;3.58;;;1.83;;
72974;SDS011;61166;54.228;37.632;2023-02-26T09:24:22;3.53;;;1.73;;
72974;SDS011;61166;54.228;37.632;2023-02-26T09:26:48;4.05;;;1.75;;
72974;SDS011;61166;54.228;37.632;2023-02-26T09:29:15;3.63;;;1.70;;
72974;SDS011;61166;54.228;37.632;2023-02-26T09:31:42;4.18;;;1.77;;
72974;SDS011;61166;54.228;37.632;2023-02-26T09:34:08;3.38;;;1.60;;
72974;SDS011;61166;54.228;37.632;2023-02-26T09:36:37;2.40;;;1.20;;
72974;SDS011;61166;54.228;37.632;2023-02-26T09:39:03;3.40;;;1.60;;
72974;SDS011;61166;54.228;37.632;2023-02-26T09:41:32;3.67;;;1.70;;
72974;SDS011;61166;54.228;37.632;2023-02-26T09:49:45;3.00;;;1.27;;
72974;SDS011;61166;54.228;37.632;2023-02-26T09:54:47;3.27;;;1.30;;
72974;SDS011;61166;54.228;37.632;2023-02-26T09:57:27;3.22;;;1.27;;
72974;SDS011;61166;54.228;37.632;2023-02-26T09:59:56;2.78;;;1.00;;
72974;SDS011;61166;54.228;37.632;2023-02-26T10:07:54;3.33;;;1.07;;
72974;SDS011;61166;54.228;37.632;2023-02-26T10:13:34;2.28;;;1.02;;
72974;SDS011;61166;54.228;37.632;2023-02-26T10:16:22;3.17;;;1.60;;
72974;SDS011;61166;54.228;37.632;2023-02-26T10:18:58;3.55;;;1.80;;
72974;SDS011;61166;54.228;37.632;2023-02-26T10:21:41;2.33;;;1.33;;
72974;SDS011;61166;54.228;37.632;2023-02-26T10:24:31;3.53;;;1.52;;
72974;SDS011;61166;54.228;37.632;2023-02-26T10:27:20;4.15;;;1.80;;
72974;SDS011;61166;54.228;37.632;2023-02-26T10:35:22;12.27;;;6.03;;
72974;SDS011;61166;54.228;37.632;2023-02-26T10:37:55;3.38;;;1.80;;
72974;SDS011;61166;54.228;37.632;2023-02-26T10:40:38;4.50;;;2.08;;
72974;SDS011;61166;54.228;37.632;2023-02-26T10:43:17;3.33;;;1.65;;
72974;SDS011;61166;54.228;37.632;2023-02-26T10:51:18;3.53;;;1.98;;
72974;SDS011;61166;54.228;37.632;2023-02-26T10:53:47;2.42;;;1.42;;
72974;SDS011;61166;54.228;37.632;2023-02-26T10:56:21;4.07;;;2.40;;
72974;SDS011;61166;54.228;37.632;2023-02-26T10:58:51;4.30;;;2.13;;
72974;SDS011;61166;54.228;37.632;2023-02-26T11:01:19;3.57;;;1.80;;
72974;SDS011;61166;54.228;37.632;2023-02-26T11:03:48;4.45;;;2.30;;
72974;SDS011;61166;54.228;37.632;2023-02-26T11:06:39;3.80;;;2.20;;
72974;SDS011;61166;54.228;37.632;2023-02-26T11:09:17;3.47;;;1.88;;
72974;SDS011;61166;54.228;37.632;2023-02-26T11:14:20;4.07;;;2.23;;
72974;SDS011;61166;54.228;37.632;2023-02-26T11:16:52;4.65;;;2.05;;
72974;SDS011;61166;54.228;37.632;2023-02-26T11:19:32;5.72;;;2.65;;
72974;SDS011;61166;54.228;37.632;2023-02-26T11:22:03;3.60;;;2.20;;
72974;SDS011;61166;54.228;37.632;2023-02-26T11:24:37;6.13;;;2.22;;
72974;SDS011;61166;54.228;37.632;2023-02-26T11:27:10;2.93;;;1.80;;
72974;SDS011;61166;54.228;37.632;2023-02-26T11:29:47;6.32;;;2.78;;
72974;SDS011;61166;54.228;37.632;2023-02-26T11:32:28;4.28;;;2.72;;
72974;SDS011;61166;54.228;37.632;2023-02-26T11:34:56;4.10;;;2.35;;
72974;SDS011;61166;54.228;37.632;2023-02-26T11:37:23;3.72;;;2.10;;
72974;SDS011;61166;54.228;37.632;2023-02-26T11:40:03;5.10;;;2.57;;
72974;SDS011;61166;54.228;37.632;2023-02-26T11:42:34;3.15;;;1.60;;
72974;SDS011;61166;54.228;37.632;2023-02-26T11:45:11;4.57;;;2.35;;
72974;SDS011;61166;54.228;37.632;2023-02-26T11:47:40;3.88;;;2.22;;
72974;SDS011;61166;54.228;37.632;2023-02-26T11:50:13;3.70;;;1.83;;
72974;SDS011;61166;54.228;37.632;2023-02-26T11:52:44;5.60;;;2.73;;
72974;SDS011;61166;54.228;37.632;2023-02-26T11:55:21;5.68;;;3.13;;
72974;SDS011;61166;54.228;37.632;2023-02-26T11:57:51;4.90;;;2.50;;
72974;SDS011;61166;54.228;37.632;2023-02-26T12:00:22;5.65;;;2.92;;
72974;SDS011;61166;54.228;37.632;2023-02-26T12:03:00;5.70;;;2.88;;
72974;SDS011;61166;54.228;37.632;2023-02-26T12:05:28;5.27;;;2.70;;
72974;SDS011;61166;54.228;37.632;2023-02-26T12:07:54;4.45;;;2.58;;
72974;SDS011;61166;54.228;37.632;2023-02-26T12:10:24;5.57;;;2.97;;
72974;SDS011;61166;54.228;37.632;2023-02-26T12:13:53;5.10;;;2.60;;
72974;SDS011;61166;54.228;37.632;2023-02-26T12:16:09;4.13;;;2.70;;
72974;SDS011;61166;54.228;37.632;2023-02-26T12:18:55;4.57;;;2.67;;
72974;SDS011;61166;54.228;37.632;2023-02-26T12:24:16;4.55;;;2.67;;
72974;SDS011;61166;54.228;37.632;2023-02-26T12:27:04;4.80;;;2.30;;
72974;SDS011;61166;54.228;37.632;2023-02-26T12:32:47;4.80;;;2.90;;
72974;SDS011;61166;54.228;37.632;2023-02-26T12:35:34;5.78;;;3.30;;
72974;SDS011;61166;54.228;37.632;2023-02-26T12:38:24;6.22;;;3.05;;
72974;SDS011;61166;54.228;37.632;2023-02-26T13:22:11;4.75;;;3.00;;
72974;SDS011;61166;54.228;37.632;2023-02-26T13:25:23;5.07;;;2.42;;
72974;SDS011;61166;54.228;37.632;2023-02-26T13:27:37;3.73;;;2.13;;
72974;SDS011;61166;54.228;37.632;2023-02-26T13:32:38;4.40;;;2.13;;
72974;SDS011;61166;54.228;37.632;2023-02-26T13:35:18;4.90;;;2.10;;
72974;SDS011;61166;54.228;37.632;2023-02-26T13:37:45;3.63;;;2.00;;
72974;SDS011;61166;54.228;37.632;2023-02-26T13:41:20;4.33;;;2.57;;
72974;SDS011;61166;54.228;37.632;2023-02-26T13:51:12;4.05;;;2.40;;
72974;SDS011;61166;54.228;37.632;2023-02-26T13:56:22;5.10;;;2.53;;
72974;SDS011;61166;54.228;37.632;2023-02-26T14:06:51;4.97;;;2.00;;
72974;SDS011;61166;54.228;37.632;2023-02-26T14:14:40;5.18;;;2.35;;
72974;SDS011;61166;54.228;37.632;2023-02-26T14:19:38;5.33;;;2.77;;
72974;SDS011;61166;54.228;37.632;2023-02-26T14:22:32;5.75;;;2.83;;
72974;SDS011;61166;54.228;37.632;2023-02-26T14:30:46;4.65;;;2.60;;
72974;SDS011;61166;54.228;37.632;2023-02-26T14:33:16;6.23;;;2.67;;
72974;SDS011;61166;54.228;37.632;2023-02-26T14:35:47;5.53;;;2.58;;
72974;SDS011;61166;54.228;37.632;2023-02-26T14:38:20;4.70;;;2.28;;
72974;SDS011;61166;54.228;37.632;2023-02-26T14:43:39;5.65;;;2.50;;
72974;SDS011;61166;54.228;37.632;2023-02-26T14:46:08;4.20;;;1.90;;
72974;SDS011;61166;54.228;37.632;2023-02-26T14:48:36;4.93;;;2.20;;
72974;SDS011;61166;54.228;37.632;2023-02-26T14:51:12;4.05;;;1.90;;
72974;SDS011;61166;54.228;37.632;2023-02-26T14:59:18;3.83;;;1.60;;
72974;SDS011;61166;54.228;37.632;2023-02-26T15:14:59;2.80;;;1.02;;
72974;SDS011;61166;54.228;37.632;2023-02-26T15:17:50;5.03;;;1.55;;
72974;SDS011;61166;54.228;37.632;2023-02-26T15:25:31;2.73;;;1.30;;
72974;SDS011;61166;54.228;37.632;2023-02-26T15:28:00;4.40;;;2.00;;
72974;SDS011;61166;54.228;37.632;2023-02-26T15:30:29;3.25;;;1.25;;
72974;SDS011;61166;54.228;37.632;2023-02-26T15:32:59;4.03;;;1.92;;
72974;SDS011;61166;54.228;37.632;2023-02-26T15:35:29;3.00;;;1.52;;
72974;SDS011;61166;54.228;37.632;2023-02-26T15:37:58;3.67;;;1.37;;
72974;SDS011;61166;54.228;37.632;2023-02-26T15:40:28;3.80;;;1.75;;
72974;SDS011;61166;54.228;37.632;2023-02-26T15:42:58;3.50;;;1.63;;
72974;SDS011;61166;54.228;37.632;2023-02-26T15:48:15;4.80;;;2.28;;
72974;SDS011;61166;54.228;37.632;2023-02-26T15:50:48;4.67;;;2.63;;
72974;SDS011;61166;54.228;37.632;2023-02-26T15:53:26;4.70;;;1.70;;
72974;SDS011;61166;54.228;37.632;2023-02-26T15:55:57;4.70;;;2.65;;
72974;SDS011;61166;54.228;37.632;2023-02-26T15:58:35;4.53;;;1.90;;
72974;SDS011;61166;54.228;37.632;2023-02-26T16:01:03;4.93;;;2.17;;
72974;SDS011;61166;54.228;37.632;2023-02-26T16:03:31;6.57;;;3.00;;
72974;SDS011;61166;54.228;37.632;2023-02-26T16:06:00;5.25;;;2.83;;
72974;SDS011;61166;54.228;37.632;2023-02-26T16:08:27;6.97;;;3.42;;
72974;SDS011;61166;54.228;37.632;2023-02-26T16:10:55;5.35;;;2.80;;
72974;SDS011;61166;54.228;37.632;2023-02-26T16:13:28;5.82;;;3.35;;
72974;SDS011;61166;54.228;37.632;2023-02-26T16:16:01;6.20;;;2.20;;
72974;SDS011;61166;54.228;37.632;2023-02-26T16:18:36;8.38;;;3.72;;
72974;SDS011;61166;54.228;37.632;2023-02-26T16:21:06;6.50;;;2.53;;
72974;SDS011;61166;54.228;37.632;2023-02-26T16:23:38;7.38;;;3.15;;
72974;SDS011;61166;54.228;37.632;2023-02-26T16:26:14;9.73;;;3.22;;
72974;SDS011;61166;54.228;37.632;2023-02-26T16:28:56;6.07;;;2.77;;
72974;SDS011;61166;54.228;37.632;2023-02-26T16:31:29;8.40;;;4.40;;
72974;SDS011;61166;54.228;37.632;2023-02-26T16:36:47;8.70;;;4.18;;
72974;SDS011;61166;54.228;37.632;2023-02-26T16:39:16;9.85;;;4.88;;
72974;SDS011;61166;54.228;37.632;2023-02-26T16:41:48;9.97;;;5.23;;
72974;SDS011;61166;54.228;37.632;2023-02-26T16:46:57;9.23;;;5.18;;
72974;SDS011;61166;54.228;37.632;2023-02-26T16:49:26;8.13;;;4.25;;
72974;SDS011;61166;54.228;37.632;2023-02-26T16:51:56;8.48;;;4.53;;
72974;SDS011;61166;54.228;37.632;2023-02-26T16:54:26;8.43;;;4.00;;
72974;SDS011;61166;54.228;37.632;2023-02-26T16:57:01;7.95;;;4.70;;
72974;SDS011;61166;54.228;37.632;2023-02-26T16:59:38;7.28;;;4.10;;
72974;SDS011;61166;54.228;37.632;2023-02-26T17:02:16;26.55;;;11.18;;
72974;SDS011;61166;54.228;37.632;2023-02-26T17:04:48;13.25;;;6.50;;
72974;SDS011;61166;54.228;37.632;2023-02-26T17:07:32;10.70;;;5.10;;
72974;SDS011;61166;54.228;37.632;2023-02-26T17:10:07;9.20;;;4.63;;
72974;SDS011;61166;54.228;37.632;2023-02-26T17:12:48;9.52;;;4.13;;
72974;SDS011;61166;54.228;37.632;2023-02-26T17:17:46;8.15;;;3.72;;
72974;SDS011;61166;54.228;37.632;2023-02-26T17:20:13;8.67;;;4.30;;
72974;SDS011;61166;54.228;37.632;2023-02-26T17:22:40;11.32;;;4.43;;
72974;SDS011;61166;54.228;37.632;2023-02-26T17:25:12;11.18;;;5.82;;
72974;SDS011;61166;54.228;37.632;2023-02-26T17:27:41;11.18;;;4.32;;
72974;SDS011;61166;54.228;37.632;2023-02-26T17:30:10;10.32;;;5.80;;
72974;SDS011;61166;54.228;37.632;2023-02-26T17:32:40;10.33;;;4.27;;
72974;SDS011;61166;54.228;37.632;2023-02-26T17:35:10;9.77;;;4.47;;
72974;SDS011;61166;54.228;37.632;2023-02-26T17:37:38;19.77;;;7.68;;
72974;SDS011;61166;54.228;37.632;2023-02-26T17:40:13;8.23;;;4.00;;
72974;SDS011;61166;54.228;37.632;2023-02-26T17:42:46;8.98;;;4.25;;
72974;SDS011;61166;54.228;37.632;2023-02-26T17:45:13;7.83;;;3.80;;
72974;SDS011;61166;54.228;37.632;2023-02-26T17:47:40;8.55;;;4.35;;
72974;SDS011;61166;54.228;37.632;2023-02-26T17:50:51;7.63;;;3.95;;
72974;SDS011;61166;54.228;37.632;2023-02-26T17:53:04;10.18;;;4.57;;
72974;SDS011;61166;54.228;37.632;2023-02-26T17:55:31;10.90;;;4.38;;
72974;SDS011;61166;54.228;37.632;2023-02-26T17:57:58;8.40;;;3.50;;
72974;SDS011;61166;54.228;37.632;2023-02-26T18:00:26;6.32;;;3.42;;
72974;SDS011;61166;54.228;37.632;2023-02-26T18:02:52;9.57;;;3.92;;
72974;SDS011;61166;54.228;37.632;2023-02-26T18:05:19;6.70;;;3.35;;
72974;SDS011;61166;54.228;37.632;2023-02-26T18:07:46;7.90;;;4.00;;
72974;SDS011;61166;54.228;37.632;2023-02-26T18:10:20;8.93;;;4.33;;
72974;SDS011;61166;54.228;37.632;2023-02-26T18:12:50;5.47;;;2.70;;
72974;SDS011;61166;54.228;37.632;2023-02-26T18:15:16;8.98;;;4.07;;
72974;SDS011;61166;54.228;37.632;2023-02-26T18:17:43;5.22;;;2.42;;
72974;SDS011;61166;54.228;37.632;2023-02-26T18:20:19;8.70;;;4.03;;
72974;SDS011;61166;54.228;37.632;2023-02-26T18:22:48;6.93;;;4.10;;